Time;durP1;ratioP1;P1;durP2;ratioP2;P2;SDS_P1;SDS_P2;PMS_P1;PMS_P2;Temp;Humidity;BMP_temperature;BMP_pressure;BME280_temperature;BME280_humidity;BME280_pressure;Samples;Min_cycle;Max_cycle;Signal;HPM_P1;HPM_P2
2022/01/30 00:02:06;;;;;;;0.40;0.30;;;7.50;77.90;;;;;;4975155;28;20038;-66
2022/01/30 00:04:32;;;;;;;0.60;0.32;;;7.50;78.00;;;;;;4974569;28;20035;-66
2022/01/30 00:06:57;;;;;;;1.05;0.35;;;7.50;77.70;;;;;;4975831;28;20501;-66
2022/01/30 00:09:23;;;;;;;0.43;0.43;;;7.50;77.40;;;;;;4975091;28;20529;-66
2022/01/30 00:11:57;;;;;;;0.70;0.40;;;7.50;78.00;;;;;;4976002;28;20502;-66
2022/01/30 00:14:25;;;;;;;0.40;0.40;;;7.50;77.70;;;;;;4975025;28;20034;-66
2022/01/30 00:16:58;;;;;;;0.77;0.57;;;7.50;77.90;;;;;;4975277;28;20042;-66
2022/01/30 00:19:32;;;;;;;0.88;0.60;;;7.40;77.70;;;;;;4975337;28;20045;-66
2022/01/30 00:22:18;;;;;;;1.75;0.70;;;7.40;78.00;;;;;;4977701;28;20537;-67
2022/01/30 00:24:58;;;;;;;0.50;0.50;;;7.40;77.80;;;;;;4975429;28;20045;-66
2022/01/30 00:27:33;;;;;;;0.50;0.50;;;7.40;78.10;;;;;;4976360;28;20516;-67
2022/01/30 00:29:59;;;;;;;0.60;0.60;;;7.40;78.30;;;;;;4973973;28;20128;-67
2022/01/30 00:32:25;;;;;;;0.60;0.60;;;7.40;78.20;;;;;;4981893;28;20042;-65
2022/01/30 00:34:50;;;;;;;0.80;0.50;;;7.30;78.40;;;;;;4980307;28;20035;-66
2022/01/30 00:37:17;;;;;;;0.55;0.55;;;7.30;78.00;;;;;;4978188;28;20030;-66
2022/01/30 00:39:42;;;;;;;0.52;0.52;;;7.30;78.10;;;;;;4978225;28;20527;-65
2022/01/30 00:42:09;;;;;;;0.73;0.60;;;7.30;78.00;;;;;;4981305;28;20050;-66
2022/01/30 00:44:34;;;;;;;0.55;0.55;;;7.30;78.00;;;;;;4976791;28;20041;-65
2022/01/30 00:47:02;;;;;;;0.50;0.50;;;7.30;77.90;;;;;;4976746;28;20503;-65
2022/01/30 00:49:28;;;;;;;0.47;0.47;;;7.30;78.00;;;;;;4974934;28;20265;-65
2022/01/30 00:51:54;;;;;;;0.77;0.60;;;7.20;78.20;;;;;;4976602;28;20116;-65
2022/01/30 00:54:19;;;;;;;1.20;0.60;;;7.20;78.20;;;;;;4979577;28;20088;-65
2022/01/30 00:56:45;;;;;;;0.60;0.60;;;7.20;78.10;;;;;;4977958;28;20046;-67
2022/01/30 00:59:11;;;;;;;0.50;0.50;;;7.20;78.30;;;;;;4976154;28;20039;-66
2022/01/30 01:01:36;;;;;;;0.77;0.60;;;7.20;78.20;;;;;;4974774;28;20039;-65
2022/01/30 01:04:02;;;;;;;0.55;0.55;;;7.20;78.50;;;;;;4978114;28;20082;-66
2022/01/30 01:06:28;;;;;;;0.80;0.47;;;7.20;78.40;;;;;;4978617;28;20569;-67
2022/01/30 01:09:00;;;;;;;0.40;0.40;;;7.20;78.00;;;;;;4978061;28;20057;-66
2022/01/30 01:24:44;;;;;;;0.53;0.30;;;7.10;78.30;;;;;;4978019;28;21014;-65
2022/01/30 01:27:09;;;;;;;0.40;0.40;;;7.10;78.20;;;;;;4981599;28;20031;-66
2022/01/30 01:29:35;;;;;;;0.52;0.50;;;7.10;78.30;;;;;;4975701;28;20769;-65
2022/01/30 01:32:01;;;;;;;0.50;0.50;;;7.10;78.20;;;;;;4979120;28;20089;-66
2022/01/30 01:34:38;;;;;;;0.45;0.45;;;7.10;78.40;;;;;;4977104;28;20046;-67
2022/01/30 01:37:07;;;;;;;0.50;0.50;;;7.10;78.50;;;;;;4976668;28;20054;-64
2022/01/30 01:39:33;;;;;;;0.40;0.40;;;7.10;78.40;;;;;;4977080;28;20105;-65
2022/01/30 01:41:58;;;;;;;0.60;0.32;;;7.20;78.30;;;;;;4976771;28;20035;-66
2022/01/30 01:44:38;;;;;;;0.30;0.30;;;7.10;78.00;;;;;;4976880;28;20042;-66
2022/01/30 01:47:05;;;;;;;0.52;0.40;;;7.20;78.30;;;;;;4977616;28;20130;-66
2022/01/30 01:49:33;;;;;;;0.88;0.30;;;7.20;78.10;;;;;;4977042;28;20030;-65
2022/01/30 01:52:20;;;;;;;0.30;0.30;;;7.20;78.20;;;;;;4977767;28;20571;-65
2022/01/30 01:54:57;;;;;;;0.43;0.43;;;7.20;78.50;;;;;;4976079;28;20042;-66
2022/01/30 01:57:25;;;;;;;0.20;0.20;;;7.20;78.50;;;;;;4976428;28;20038;-66
2022/01/30 01:59:51;;;;;;;0.40;0.30;;;7.30;78.20;;;;;;4975704;28;20118;-65
2022/01/30 02:02:17;;;;;;;1.30;0.30;;;7.20;78.30;;;;;;4979716;28;20041;-66
2022/01/30 02:04:43;;;;;;;0.20;0.20;;;7.30;78.40;;;;;;4975987;28;20031;-66
2022/01/30 02:09:54;;;;;;;1.05;0.30;;;7.30;78.30;;;;;;4978056;28;20575;-65
2022/01/30 02:12:28;;;;;;;0.25;0.22;;;7.30;78.20;;;;;;4979750;28;20038;-66
2022/01/30 02:15:12;;;;;;;0.22;0.20;;;7.30;78.20;;;;;;4976353;28;20034;-66
2022/01/30 02:26:03;;;;;;;0.10;0.10;;;7.40;77.80;;;;;;4975806;28;20046;-67
2022/01/30 02:28:32;;;;;;;0.43;0.20;;;7.40;77.90;;;;;;4975122;28;20042;-65
2022/01/30 02:31:06;;;;;;;0.10;0.10;;;7.40;77.90;;;;;;4975453;28;20046;-66
2022/01/30 02:33:32;;;;;;;0.32;0.10;;;7.40;77.90;;;;;;4977510;28;20030;-66
2022/01/30 02:35:58;;;;;;;0.10;0.10;;;7.40;77.90;;;;;;4975556;28;20085;-66
2022/01/30 02:38:25;;;;;;;0.10;0.10;;;7.40;77.80;;;;;;4978366;28;20449;-66
2022/01/30 02:40:54;;;;;;;0.73;0.20;;;7.40;77.80;;;;;;4975699;28;20035;-66
2022/01/30 02:43:24;;;;;;;0.28;0.10;;;7.50;77.70;;;;;;4975243;28;21085;-67
2022/01/30 02:46:03;;;;;;;0.82;0.30;;;7.50;77.60;;;;;;4975934;28;20034;-66
2022/01/30 02:48:45;;;;;;;1.20;0.20;;;7.50;77.50;;;;;;4975407;28;20105;-65
2022/01/30 02:51:14;;;;;;;0.98;0.20;;;7.60;77.50;;;;;;4976042;28;20030;-70
2022/01/30 02:53:43;;;;;;;0.10;0.10;;;7.60;77.30;;;;;;4976719;28;20058;-66
2022/01/30 02:56:09;;;;;;;0.10;0.10;;;7.60;77.20;;;;;;4977983;28;20523;-66
2022/01/30 02:58:35;;;;;;;0.20;0.10;;;7.60;77.20;;;;;;4975265;28;20031;-66
2022/01/30 03:01:01;;;;;;;0.43;0.10;;;7.60;77.00;;;;;;4973174;28;20031;-66
2022/01/30 03:03:27;;;;;;;0.10;0.10;;;7.60;76.90;;;;;;4975022;28;20632;-66
2022/01/30 03:05:52;;;;;;;0.63;0.10;;;7.60;76.80;;;;;;4973451;28;20034;-67
2022/01/30 03:08:18;;;;;;;0.10;0.10;;;7.60;76.90;;;;;;4975611;28;20045;-65
2022/01/30 03:10:43;;;;;;;0.10;0.10;;;7.60;76.80;;;;;;4973037;28;20065;-66
2022/01/30 03:13:09;;;;;;;0.40;0.10;;;7.70;76.90;;;;;;4978964;28;20046;-67
2022/01/30 03:15:35;;;;;;;0.50;0.10;;;7.70;76.90;;;;;;4977400;28;20396;-66
2022/01/30 03:18:01;;;;;;;0.95;0.10;;;7.60;76.70;;;;;;4975386;28;20030;-66
2022/01/30 03:20:27;;;;;;;0.20;0.10;;;7.70;76.70;;;;;;4975439;28;20026;-66
2022/01/30 03:22:53;;;;;;;0.03;0.03;;;7.70;76.60;;;;;;4974236;28;20038;-66
2022/01/30 03:25:18;;;;;;;0.00;0.00;;;7.70;76.50;;;;;;4974471;28;20042;-66
2022/01/30 03:27:50;;;;;;;0.08;0.08;;;7.70;76.70;;;;;;4973631;28;20042;-66
2022/01/30 03:30:24;;;;;;;0.10;0.00;;;7.70;76.50;;;;;;4975454;28;20713;-65
2022/01/30 03:32:49;;;;;;;0.10;0.10;;;7.70;76.30;;;;;;4972996;28;20486;-66
2022/01/30 03:35:15;;;;;;;0.65;0.10;;;7.60;76.20;;;;;;4976219;28;20087;-67
2022/01/30 03:37:40;;;;;;;0.00;0.00;;;7.70;76.40;;;;;;4973082;28;20126;-66
2022/01/30 03:40:07;;;;;;;0.25;0.10;;;7.60;76.40;;;;;;4977184;28;20038;-65
2022/01/30 03:42:32;;;;;;;0.10;0.10;;;7.60;76.40;;;;;;4975677;28;20045;-66
2022/01/30 03:44:58;;;;;;;0.22;0.10;;;7.60;76.40;;;;;;4972964;28;20027;-66
2022/01/30 03:47:26;;;;;;;0.00;0.00;;;7.60;76.40;;;;;;4974520;28;20114;-67
2022/01/30 03:49:52;;;;;;;0.22;0.22;;;7.60;76.40;;;;;;4974290;28;20063;-67
2022/01/30 03:52:18;;;;;;;0.10;0.10;;;7.60;76.40;;;;;;4974353;28;20069;-67
2022/01/30 03:54:44;;;;;;;0.20;0.10;;;7.50;76.30;;;;;;4972988;28;20114;-66
2022/01/30 03:57:09;;;;;;;0.08;0.08;;;7.50;76.30;;;;;;4975004;28;20035;-67
2022/01/30 03:59:35;;;;;;;0.35;0.10;;;7.50;76.40;;;;;;4975988;28;20041;-67
2022/01/30 04:02:01;;;;;;;0.20;0.20;;;7.50;76.30;;;;;;4975130;28;20049;-67
2022/01/30 04:04:27;;;;;;;0.30;0.10;;;7.50;76.40;;;;;;4974930;28;20034;-66
2022/01/30 04:06:57;;;;;;;0.20;0.20;;;7.50;76.40;;;;;;4976140;28;20035;-66
2022/01/30 04:09:22;;;;;;;0.85;0.17;;;7.50;76.50;;;;;;4979589;28;20046;-66
2022/01/30 04:11:48;;;;;;;0.82;0.10;;;7.40;76.30;;;;;;4977648;28;20584;-66
2022/01/30 04:14:14;;;;;;;0.10;0.10;;;7.40;76.50;;;;;;4980134;28;20031;-67
2022/01/30 04:16:40;;;;;;;0.00;0.00;;;7.50;76.60;;;;;;4978713;28;20042;-66
2022/01/30 04:19:06;;;;;;;0.30;0.10;;;7.40;76.50;;;;;;4978376;28;20042;-66
2022/01/30 04:21:32;;;;;;;0.40;0.17;;;7.40;76.50;;;;;;4980296;28;20065;-65
2022/01/30 04:23:57;;;;;;;43.83;19.73;;;7.40;76.60;;;;;;4979495;28;20038;-65
2022/01/30 04:26:23;;;;;;;3.97;2.30;;;7.40;76.60;;;;;;4980881;28;20588;-65
2022/01/30 04:28:49;;;;;;;1.40;1.17;;;7.40;76.60;;;;;;4979497;28;20122;-66
2022/01/30 04:31:14;;;;;;;1.00;0.75;;;7.50;76.60;;;;;;4980410;28;20046;-66
2022/01/30 04:33:40;;;;;;;0.63;0.30;;;7.40;76.60;;;;;;4979806;28;20027;-64
2022/01/30 04:36:09;;;;;;;1.33;0.20;;;7.50;76.80;;;;;;4979733;28;20037;-65
2022/01/30 04:39:01;;;;;;;0.88;0.20;;;7.50;76.80;;;;;;4980750;28;20038;-66
2022/01/30 04:41:50;;;;;;;0.10;0.10;;;7.50;76.90;;;;;;4975850;28;20085;-66
2022/01/30 05:02:48;;;;;;;0.43;0.20;;;7.70;77.30;;;;;;4976104;28;20022;-67
2022/01/30 05:05:41;;;;;;;0.20;0.20;;;7.60;77.20;;;;;;4976124;28;21935;-66
2022/01/30 05:08:07;;;;;;;0.68;0.30;;;7.70;77.00;;;;;;4977991;28;20038;-66
2022/01/30 05:10:32;;;;;;;0.20;0.20;;;7.60;77.00;;;;;;4975067;28;20039;-66
2022/01/30 05:13:01;;;;;;;0.63;0.30;;;7.60;77.00;;;;;;4977841;28;20034;-66
2022/01/30 05:15:28;;;;;;;0.25;0.22;;;7.60;77.00;;;;;;4977227;28;20983;-66
2022/01/30 05:17:54;;;;;;;0.50;0.30;;;7.60;77.20;;;;;;4976434;28;20022;-66
2022/01/30 05:20:20;;;;;;;0.57;0.25;;;7.60;77.40;;;;;;4974381;28;20034;-67
2022/01/30 05:22:46;;;;;;;0.40;0.30;;;7.60;77.50;;;;;;4976916;28;20033;-67
2022/01/30 05:25:13;;;;;;;0.30;0.30;;;7.60;77.70;;;;;;4976066;28;20512;-66
2022/01/30 05:27:39;;;;;;;0.32;0.30;;;7.50;77.90;;;;;;4975145;28;20513;-66
2022/01/30 05:30:06;;;;;;;1.23;0.40;;;7.50;77.70;;;;;;4974467;28;20078;-66
2022/01/30 05:32:32;;;;;;;0.30;0.30;;;7.50;77.80;;;;;;4940286;28;1106162;-66
2022/01/30 05:34:58;;;;;;;0.20;0.17;;;7.50;77.90;;;;;;4976519;28;20035;-66
2022/01/30 05:37:24;;;;;;;0.40;0.30;;;7.60;78.00;;;;;;4979386;28;20494;-67
2022/01/30 05:39:50;;;;;;;0.28;0.20;;;7.50;78.00;;;;;;4977739;28;20049;-69
2022/01/30 05:42:18;;;;;;;0.95;0.30;;;7.50;78.20;;;;;;4978447;28;20959;-66
2022/01/30 05:44:59;;;;;;;1.25;1.15;;;7.50;78.10;;;;;;4975744;28;21896;-65
2022/01/30 05:47:31;;;;;;;0.20;0.20;;;7.50;78.20;;;;;;4977741;28;20034;-66
2022/01/30 05:49:57;;;;;;;0.20;0.20;;;7.50;78.20;;;;;;4978062;28;20039;-66
2022/01/30 05:52:24;;;;;;;0.20;0.20;;;7.50;78.20;;;;;;4976598;28;20108;-66
2022/01/30 05:54:50;;;;;;;0.60;0.60;;;7.50;78.00;;;;;;4976275;28;20031;-65
2022/01/30 05:57:16;;;;;;;0.30;0.30;;;7.40;77.90;;;;;;4977800;28;20070;-67
2022/01/30 05:59:41;;;;;;;0.75;0.20;;;7.40;78.00;;;;;;4975640;28;20034;-65
2022/01/30 06:02:07;;;;;;;0.77;0.20;;;7.50;78.00;;;;;;4976130;28;20027;-66
2022/01/30 06:04:33;;;;;;;0.45;0.40;;;7.40;77.90;;;;;;4976628;28;20041;-65
2022/01/30 06:07:00;;;;;;;0.30;0.30;;;7.40;78.00;;;;;;4977151;28;20067;-66
2022/01/30 06:09:26;;;;;;;0.30;0.30;;;7.40;77.90;;;;;;4976641;28;20068;-67
2022/01/30 06:11:52;;;;;;;2.00;1.50;;;7.40;77.90;;;;;;4973692;28;20043;-66
2022/01/30 06:14:19;;;;;;;0.50;0.40;;;7.40;77.90;;;;;;4977458;28;20263;-65
2022/01/30 06:16:45;;;;;;;0.60;0.60;;;7.40;77.90;;;;;;4992077;28;20042;-66
2022/01/30 06:19:11;;;;;;;0.52;0.52;;;7.40;78.00;;;;;;4976583;28;20583;-66
2022/01/30 06:21:36;;;;;;;0.40;0.40;;;7.30;78.00;;;;;;4976783;28;20034;-65
2022/01/30 06:24:02;;;;;;;0.70;0.47;;;7.30;78.00;;;;;;4977954;28;20027;-67
2022/01/30 06:26:28;;;;;;;0.52;0.50;;;7.40;78.20;;;;;;4976586;28;20053;-65
2022/01/30 06:28:54;;;;;;;0.68;0.50;;;7.30;78.60;;;;;;4974596;28;20042;-65
2022/01/30 06:31:20;;;;;;;0.52;0.52;;;7.30;78.40;;;;;;4975092;28;22566;-66
2022/01/30 06:33:45;;;;;;;0.57;0.57;;;7.30;78.90;;;;;;4973813;28;20034;-66
2022/01/30 06:36:11;;;;;;;0.47;0.45;;;7.20;78.90;;;;;;4975670;28;20597;-66
2022/01/30 06:38:37;;;;;;;0.40;0.40;;;7.20;79.10;;;;;;4974787;28;20508;-66
2022/01/30 06:41:03;;;;;;;1.20;0.40;;;7.20;79.30;;;;;;4976111;28;20050;-66
2022/01/30 06:43:28;;;;;;;0.30;0.20;;;7.20;79.60;;;;;;4975697;28;20049;-66
2022/01/30 06:45:55;;;;;;;0.28;0.28;;;7.20;79.80;;;;;;4977340;28;20529;-65
2022/01/30 06:48:21;;;;;;;0.32;0.32;;;7.10;80.10;;;;;;4975393;28;20081;-66
2022/01/30 06:50:47;;;;;;;1.75;0.20;;;7.10;80.40;;;;;;4973117;28;20042;-66
2022/01/30 06:53:12;;;;;;;0.20;0.20;;;7.10;80.50;;;;;;4976512;28;20544;-66
2022/01/30 06:55:42;;;;;;;0.60;0.57;;;7.10;80.50;;;;;;4976261;28;20041;-66
2022/01/30 06:58:08;;;;;;;0.75;0.70;;;7.10;80.60;;;;;;4973495;28;20072;-66
2022/01/30 07:00:34;;;;;;;1.38;0.70;;;7.10;80.70;;;;;;4974001;28;20041;-66
2022/01/30 07:03:00;;;;;;;0.50;0.45;;;7.00;80.70;;;;;;4973498;28;20580;-66
2022/01/30 07:05:26;;;;;;;0.60;0.50;;;7.10;80.80;;;;;;4975876;28;20030;-66
2022/01/30 07:07:52;;;;;;;0.70;0.60;;;7.00;80.60;;;;;;4976185;28;20041;-65
2022/01/30 07:10:17;;;;;;;0.63;0.40;;;7.00;80.50;;;;;;4974835;28;20034;-65
2022/01/30 07:12:43;;;;;;;2.25;0.50;;;7.00;80.80;;;;;;4974456;28;20749;-66
2022/01/30 07:15:09;;;;;;;1.13;0.50;;;7.00;80.80;;;;;;4974293;28;20726;-66
2022/01/30 07:17:35;;;;;;;3.38;1.05;;;7.00;80.80;;;;;;4974084;28;20030;-66
2022/01/30 07:20:01;;;;;;;1.10;0.60;;;7.00;80.90;;;;;;4973925;28;20048;-66
2022/01/30 07:22:29;;;;;;;0.90;0.50;;;6.90;80.90;;;;;;4974477;28;20041;-66
2022/01/30 07:24:55;;;;;;;1.08;0.60;;;6.90;80.80;;;;;;4974050;28;20039;-66
2022/01/30 07:27:21;;;;;;;1.13;0.43;;;6.90;80.80;;;;;;4976133;28;20070;-66
2022/01/30 07:29:47;;;;;;;1.55;1.10;;;7.00;81.00;;;;;;4971342;28;20129;-67
2022/01/30 07:32:12;;;;;;;1.05;0.85;;;6.90;80.80;;;;;;4975254;28;20125;-66
2022/01/30 07:34:38;;;;;;;3.10;1.05;;;7.00;81.10;;;;;;4975445;28;20030;-67
2022/01/30 07:37:04;;;;;;;0.82;0.47;;;7.00;81.00;;;;;;4974822;28;20405;-66
2022/01/30 07:39:31;;;;;;;1.88;0.80;;;7.00;81.00;;;;;;4974122;28;20743;-66
2022/01/30 07:41:57;;;;;;;1.48;0.73;;;7.00;80.70;;;;;;4973898;28;20069;-65
2022/01/30 07:44:23;;;;;;;2.00;0.90;;;7.00;80.80;;;;;;4975920;28;20062;-65
2022/01/30 07:46:49;;;;;;;1.40;0.95;;;7.00;80.80;;;;;;4972161;28;20039;-66
2022/01/30 07:49:14;;;;;;;1.55;0.70;;;7.00;80.80;;;;;;4974513;28;20038;-65
2022/01/30 07:51:40;;;;;;;0.90;0.77;;;7.00;80.80;;;;;;4973722;28;20027;-66
2022/01/30 07:54:06;;;;;;;1.38;0.90;;;7.00;81.00;;;;;;4975219;28;20033;-66
2022/01/30 07:56:31;;;;;;;1.23;1.00;;;7.00;80.80;;;;;;4973449;28;20030;-65
2022/01/30 07:58:57;;;;;;;0.47;0.47;;;7.00;81.00;;;;;;4974865;28;20030;-66
2022/01/30 08:01:23;;;;;;;1.50;1.40;;;7.10;80.80;;;;;;4973718;28;20034;-66
2022/01/30 08:03:48;;;;;;;0.50;0.40;;;7.10;80.80;;;;;;4972381;28;20625;-65
2022/01/30 08:06:14;;;;;;;1.88;1.35;;;7.10;80.70;;;;;;4973997;28;20528;-66
2022/01/30 08:08:39;;;;;;;1.73;0.50;;;7.10;80.60;;;;;;4974585;28;20042;-66
2022/01/30 08:11:08;;;;;;;1.83;1.50;;;7.10;80.70;;;;;;4974647;28;20077;-66
2022/01/30 08:13:34;;;;;;;3.00;1.10;;;7.10;80.60;;;;;;4976728;28;20065;-66
2022/01/30 08:15:59;;;;;;;0.50;0.50;;;7.10;80.50;;;;;;4975342;28;20524;-65
2022/01/30 08:18:25;;;;;;;0.57;0.50;;;7.10;80.50;;;;;;4976744;28;20157;-66
2022/01/30 08:20:51;;;;;;;0.50;0.50;;;7.10;80.40;;;;;;4975070;28;20034;-65
2022/01/30 08:23:18;;;;;;;0.65;0.40;;;7.10;81.30;;;;;;4976206;28;20466;-66
2022/01/30 08:25:44;;;;;;;1.67;0.70;;;7.10;80.30;;;;;;4976073;28;20058;-66
2022/01/30 08:28:11;;;;;;;0.80;0.60;;;7.10;80.30;;;;;;4976355;28;20046;-66
2022/01/30 08:30:36;;;;;;;1.33;0.80;;;7.10;80.30;;;;;;4974041;28;20030;-66
2022/01/30 08:33:02;;;;;;;1.35;0.60;;;7.10;80.20;;;;;;4974205;28;20034;-66
2022/01/30 08:35:29;;;;;;;0.82;0.60;;;7.10;80.30;;;;;;4976887;28;20034;-67
2022/01/30 08:37:56;;;;;;;1.30;0.60;;;7.10;80.10;;;;;;4975169;28;20027;-65
2022/01/30 08:40:23;;;;;;;2.22;0.70;;;7.20;80.20;;;;;;4975731;28;20037;-66
2022/01/30 08:42:50;;;;;;;2.50;1.13;;;7.20;80.10;;;;;;4974343;28;20064;-66
2022/01/30 08:45:18;;;;;;;1.70;0.75;;;7.20;80.10;;;;;;4974431;28;20045;-66
2022/01/30 08:47:46;;;;;;;2.25;0.80;;;7.30;80.10;;;;;;4974637;28;20505;-65
2022/01/30 08:50:13;;;;;;;4.30;0.80;;;7.30;79.80;;;;;;4975409;28;20420;-66
2022/01/30 08:52:39;;;;;;;4.03;1.00;;;7.30;79.80;;;;;;4979693;28;22870;-66
2022/01/30 08:55:07;;;;;;;2.85;1.30;;;7.30;79.40;;;;;;4980006;28;20062;-66
2022/01/30 08:57:33;;;;;;;1.48;0.80;;;7.30;79.30;;;;;;4978487;28;20027;-67
2022/01/30 08:59:59;;;;;;;1.02;0.70;;;7.40;79.10;;;;;;4978531;28;20064;-66
2022/01/30 09:02:26;;;;;;;2.40;1.10;;;7.40;78.90;;;;;;4977764;28;20516;-69
2022/01/30 09:04:51;;;;;;;1.88;1.50;;;7.30;78.70;;;;;;4977600;28;20089;-66
2022/01/30 09:07:18;;;;;;;2.58;1.20;;;7.40;78.70;;;;;;4980979;28;20039;-65
2022/01/30 09:09:44;;;;;;;2.50;1.00;;;7.40;78.70;;;;;;4978722;28;20042;-66
2022/01/30 09:12:10;;;;;;;2.10;0.90;;;7.30;78.60;;;;;;4981800;28;20062;-66
2022/01/30 09:14:40;;;;;;;2.80;1.00;;;7.40;78.60;;;;;;4978588;28;20109;-66
2022/01/30 09:17:16;;;;;;;2.35;1.17;;;7.30;78.50;;;;;;4971919;28;20066;-66
2022/01/30 09:19:44;;;;;;;2.92;1.10;;;7.30;78.50;;;;;;4970133;28;20125;-67
2022/01/30 09:22:12;;;;;;;3.83;1.17;;;7.30;78.60;;;;;;4968106;28;20073;-64
2022/01/30 09:24:38;;;;;;;3.42;1.38;;;7.40;79.40;;;;;;4969543;28;20066;-66
2022/01/30 09:27:05;;;;;;;3.92;1.42;;;7.40;78.40;;;;;;4971546;28;20048;-66
2022/01/30 09:29:31;;;;;;;6.50;1.60;;;7.40;78.20;;;;;;4967542;28;20031;-64
2022/01/30 09:31:58;;;;;;;4.53;1.40;;;7.50;77.60;;;;;;4970827;28;20852;-65
2022/01/30 09:34:24;;;;;;;6.07;1.45;;;7.50;77.50;;;;;;4969449;28;20485;-66
2022/01/30 09:36:50;;;;;;;7.25;2.03;;;7.50;77.40;;;;;;4970108;28;20095;-66
2022/01/30 09:39:16;;;;;;;3.35;1.42;;;7.60;77.00;;;;;;4973668;28;20121;-65
2022/01/30 09:41:43;;;;;;;6.32;1.73;;;7.60;77.10;;;;;;4975630;28;20569;-65
2022/01/30 09:44:10;;;;;;;5.78;2.03;;;7.70;77.00;;;;;;4974789;28;20038;-66
2022/01/30 09:46:42;;;;;;;5.97;2.13;;;7.70;76.70;;;;;;4971462;28;20046;-67
2022/01/30 09:49:08;;;;;;;6.60;2.88;;;7.80;75.80;;;;;;4969264;28;20058;-67
2022/01/30 09:51:35;;;;;;;9.20;2.55;;;7.80;75.20;;;;;;4972505;28;20027;-67
2022/01/30 09:54:01;;;;;;;5.47;1.70;;;7.90;73.30;;;;;;4967222;28;20117;-67
2022/01/30 09:56:27;;;;;;;6.32;1.88;;;7.90;73.50;;;;;;4971546;28;20038;-66
2022/01/30 09:58:53;;;;;;;7.32;1.90;;;7.90;73.10;;;;;;4972525;28;20037;-67
2022/01/30 10:01:18;;;;;;;8.02;1.77;;;8.00;72.50;;;;;;4970833;28;20043;-65
2022/01/30 10:03:47;;;;;;;8.73;2.10;;;8.00;72.40;;;;;;4968212;28;20031;-67
2022/01/30 10:06:19;;;;;;;6.20;1.90;;;8.00;70.60;;;;;;4970240;28;20038;-65
2022/01/30 10:08:47;;;;;;;5.22;1.88;;;7.90;69.60;;;;;;4967470;28;20045;-65
2022/01/30 10:11:32;;;;;;;8.73;1.70;;;7.90;69.30;;;;;;4971513;28;20041;-65
2022/01/30 10:14:07;;;;;;;5.50;1.50;;;7.90;68.30;;;;;;4968238;28;20041;-66
2022/01/30 10:16:44;;;;;;;6.53;1.80;;;7.90;69.00;;;;;;4968531;28;20034;-66
2022/01/30 10:19:13;;;;;;;6.75;1.90;;;8.00;69.20;;;;;;4969318;28;20039;-65
2022/01/30 10:21:39;;;;;;;7.82;1.77;;;8.00;69.70;;;;;;4969650;28;20041;-67
2022/01/30 10:24:26;;;;;;;7.50;1.80;;;8.00;68.80;;;;;;4970574;28;20072;-67
2022/01/30 10:26:55;;;;;;;6.15;2.13;;;7.90;67.90;;;;;;4967409;28;20489;-67
2022/01/30 10:29:31;;;;;;;8.45;1.50;;;8.00;68.80;;;;;;4970607;28;20046;-66
2022/01/30 10:32:01;;;;;;;5.00;1.50;;;8.00;67.40;;;;;;4966626;28;20038;-66
2022/01/30 10:34:27;;;;;;;8.52;1.90;;;8.10;67.00;;;;;;4968390;28;20046;-66
2022/01/30 10:37:19;;;;;;;7.30;2.50;;;8.10;67.70;;;;;;4968154;28;20031;-66
2022/01/30 10:40:11;;;;;;;7.97;1.92;;;8.10;65.20;;;;;;4966526;28;20034;-67
2022/01/30 10:42:40;;;;;;;10.43;1.88;;;8.20;64.50;;;;;;4972217;28;20035;-66
2022/01/30 10:45:25;;;;;;;6.47;2.50;;;8.20;65.20;;;;;;4968513;28;20043;-67
2022/01/30 10:47:50;;;;;;;7.75;1.98;;;8.20;65.70;;;;;;4970802;28;20034;-66
2022/01/30 10:50:19;;;;;;;4.72;1.70;;;8.20;65.10;;;;;;4970196;28;21766;-67
2022/01/30 10:52:50;;;;;;;5.85;1.73;;;8.20;65.50;;;;;;4968348;28;20034;-67
2022/01/30 10:55:16;;;;;;;4.90;1.63;;;8.20;64.60;;;;;;4968127;28;20742;-66
2022/01/30 10:57:45;;;;;;;7.57;1.77;;;8.20;64.50;;;;;;4967690;28;20096;-67
2022/01/30 11:00:11;;;;;;;4.38;1.63;;;8.10;65.40;;;;;;4966292;28;20042;-66
2022/01/30 11:02:38;;;;;;;4.40;1.58;;;8.10;66.00;;;;;;4986811;28;20046;-67
2022/01/30 11:05:10;;;;;;;6.60;2.30;;;8.20;65.30;;;;;;4971727;28;20509;-66
2022/01/30 11:07:37;;;;;;;7.50;2.00;;;8.20;65.70;;;;;;4973238;28;20030;-66
2022/01/30 11:10:19;;;;;;;6.70;1.92;;;8.20;65.80;;;;;;4966861;28;20055;-67
2022/01/30 11:12:56;;;;;;;6.78;1.70;;;8.30;65.30;;;;;;4977621;28;20034;-65
2022/01/30 11:17:55;;;;;;;5.82;1.35;;;8.40;63.50;;;;;;4977121;28;20037;-67
2022/01/30 11:20:23;;;;;;;5.32;1.33;;;8.50;62.90;;;;;;4975723;28;20306;-66
2022/01/30 11:22:51;;;;;;;8.65;2.45;;;8.50;61.70;;;;;;4977261;28;20117;-66
2022/01/30 11:25:18;;;;;;;7.90;1.80;;;8.50;62.10;;;;;;4989832;28;20321;-66
2022/01/30 11:27:46;;;;;;;3.20;1.23;;;8.50;61.90;;;;;;4977783;28;20031;-66
2022/01/30 11:30:15;;;;;;;4.55;1.52;;;8.50;62.20;;;;;;4975862;28;20413;-66
2022/01/30 11:32:40;;;;;;;4.75;1.40;;;8.50;63.20;;;;;;4976834;28;20038;-66
2022/01/30 11:35:07;;;;;;;6.38;2.10;;;8.60;63.10;;;;;;4975825;28;20035;-66
2022/01/30 11:37:36;;;;;;;6.95;1.70;;;8.70;61.70;;;;;;4975067;28;20038;-67
2022/01/30 11:40:11;;;;;;;5.65;1.77;;;8.70;62.20;;;;;;4976300;28;20031;-66
2022/01/30 11:42:45;;;;;;;5.63;1.65;;;8.70;61.70;;;;;;4976720;28;20700;-66
2022/01/30 11:45:29;;;;;;;3.58;1.58;;;8.70;61.70;;;;;;4977558;28;20121;-67
2022/01/30 11:47:58;;;;;;;11.00;1.95;;;8.80;60.60;;;;;;4977196;28;20031;-65
2022/01/30 11:50:29;;;;;;;5.43;1.83;;;8.80;61.70;;;;;;4975993;28;20062;-67
2022/01/30 11:53:02;;;;;;;5.68;1.45;;;8.80;60.10;;;;;;4976773;28;20034;-66
2022/01/30 11:55:37;;;;;;;7.50;1.63;;;8.80;61.20;;;;;;4974697;28;20499;-66
2022/01/30 11:58:02;;;;;;;5.20;1.75;;;8.70;60.70;;;;;;4974406;28;20691;-68
2022/01/30 12:00:41;;;;;;;7.43;1.88;;;8.60;61.10;;;;;;4976298;28;20118;-67
2022/01/30 12:03:23;;;;;;;7.20;2.92;;;8.60;60.20;;;;;;4981256;28;20066;-66
2022/01/30 12:05:49;;;;;;;6.18;1.98;;;8.50;60.70;;;;;;4979046;28;20382;-66
2022/01/30 12:08:47;;;;;;;4.93;1.98;;;8.40;62.00;;;;;;4980407;28;20047;-67
2022/01/30 12:11:34;;;;;;;6.20;1.60;;;8.40;61.50;;;;;;4978582;28;20042;-66
2022/01/30 12:14:10;;;;;;;4.55;1.65;;;8.40;62.00;;;;;;4977699;28;20038;-67
2022/01/30 12:16:56;;;;;;;8.02;1.67;;;8.30;62.60;;;;;;4977548;28;20498;-66
2022/01/30 12:19:31;;;;;;;5.65;1.45;;;8.40;61.70;;;;;;4978065;28;20115;-69
2022/01/30 12:22:20;;;;;;;5.70;1.50;;;8.40;61.70;;;;;;4979039;28;20034;-66
2022/01/30 12:25:20;;;;;;;6.55;1.70;;;8.40;61.00;;;;;;4977803;28;20041;-65
2022/01/30 12:27:55;;;;;;;8.05;1.83;;;8.40;59.70;;;;;;4980247;28;20122;-67
2022/01/30 12:30:41;;;;;;;5.32;1.70;;;8.40;60.00;;;;;;4980715;28;20031;-66
2022/01/30 12:33:32;;;;;;;8.73;2.70;;;8.50;59.90;;;;;;4981146;28;20033;-67
2022/01/30 12:36:00;;;;;;;9.13;2.58;;;8.50;60.00;;;;;;4983164;28;20027;-65
2022/01/30 12:38:34;;;;;;;5.57;1.80;;;8.50;61.00;;;;;;4980274;28;20039;-66
2022/01/30 12:41:11;;;;;;;4.95;1.60;;;8.50;60.30;;;;;;4983887;28;20058;-66
2022/01/30 12:43:36;;;;;;;6.85;1.70;;;8.60;60.80;;;;;;4982912;28;20041;-67
2022/01/30 12:46:07;;;;;;;5.45;1.80;;;8.60;59.90;;;;;;4980908;28;20030;-66
2022/01/30 12:48:33;;;;;;;4.38;1.38;;;8.60;60.00;;;;;;4979291;28;20035;-66
2022/01/30 12:51:03;;;;;;;8.75;1.58;;;8.60;60.60;;;;;;4981003;28;20035;-66
2022/01/30 12:53:32;;;;;;;7.80;1.90;;;8.70;60.70;;;;;;4981046;28;20289;-67
2022/01/30 12:55:59;;;;;;;9.10;2.05;;;8.70;60.40;;;;;;4980810;28;20045;-66
2022/01/30 12:58:32;;;;;;;7.32;1.80;;;8.70;59.60;;;;;;4982618;28;20061;-66
2022/01/30 13:01:14;;;;;;;6.07;1.42;;;8.70;59.60;;;;;;4981825;28;20060;-67
2022/01/30 13:03:41;;;;;;;8.32;1.50;;;8.80;58.10;;;;;;4983216;28;20061;-68
2022/01/30 13:06:06;;;;;;;6.38;1.30;;;8.80;58.60;;;;;;4982959;28;20042;-67
2022/01/30 13:08:45;;;;;;;4.55;1.10;;;8.80;58.60;;;;;;4982955;28;20088;-65
2022/01/30 13:11:16;;;;;;;9.75;1.38;;;8.80;58.20;;;;;;4981904;28;20541;-67
2022/01/30 13:13:57;;;;;;;8.45;1.65;;;8.80;59.00;;;;;;4980943;28;20038;-66
2022/01/30 13:16:27;;;;;;;6.78;1.30;;;8.90;58.40;;;;;;4981146;28;20540;-66
2022/01/30 13:18:53;;;;;;;5.72;1.35;;;8.90;58.70;;;;;;4981621;28;20451;-66
2022/01/30 13:21:28;;;;;;;4.10;1.20;;;8.90;58.20;;;;;;4981472;28;20047;-67
2022/01/30 13:23:54;;;;;;;5.75;1.88;;;8.90;58.20;;;;;;4981696;28;20552;-67
2022/01/30 13:26:37;;;;;;;5.80;1.70;;;8.90;59.50;;;;;;4979247;28;20046;-66
2022/01/30 13:29:07;;;;;;;5.35;1.40;;;8.90;58.80;;;;;;4977690;28;20198;-65
2022/01/30 13:31:35;;;;;;;6.53;1.80;;;8.90;58.80;;;;;;4974026;28;20034;-66
2022/01/30 13:34:09;;;;;;;5.38;1.60;;;9.00;58.80;;;;;;4980463;28;20038;-64
2022/01/30 13:36:35;;;;;;;5.15;1.48;;;9.00;57.20;;;;;;4977582;28;20110;-67
2022/01/30 13:39:06;;;;;;;9.10;1.75;;;8.90;57.50;;;;;;4981682;28;20133;-68
2022/01/30 13:41:36;;;;;;;6.38;1.83;;;8.90;57.80;;;;;;4982200;28;20042;-68
2022/01/30 13:44:10;;;;;;;6.13;1.65;;;8.90;57.60;;;;;;4981374;28;20039;-68
2022/01/30 13:46:57;;;;;;;5.95;1.33;;;8.90;57.90;;;;;;4982481;28;20058;-67
2022/01/30 13:49:24;;;;;;;6.90;1.38;;;8.90;57.70;;;;;;4980511;28;20035;-67
2022/01/30 13:52:10;;;;;;;4.28;1.38;;;8.90;57.30;;;;;;4981313;28;20027;-68
2022/01/30 13:54:39;;;;;;;5.65;1.30;;;8.90;55.40;;;;;;4981172;28;20034;-67